Meteo Giornale » Osservazioni meteo Italia » S Maria Di Leuca

ore: 11:55 - Osservazioni Meteo S Maria Di Leuca
Lat. 39° 49' N Lon. 18° 21' E Alt. 104 metri s.l.m.

molto_nuvoloso Europe/Rome

19 °C

Molto Nuvoloso

Temp. 24 Ore

14 °C

20 °C

Nord-Ovest

20.3 Km/h

Dew point 12 °C

Umidità 63 %

Visibilità  10 Km

Il sole sorge alle ore 05:21

Il sole tramonta alle ore 20:05

Data e Ora Cielo e Fenomeni T °C DP °C Um. % Pres. hPa Vis. km Vento km/h
Oggi h: 11:55 molto_nuvoloso Molto Nuvoloso 19 12 63 1012 10 NO 20.3
Oggi h: 10:55 molto_nuvoloso Molto Nuvoloso 19 10 55 1012 10 N 20.3
Oggi h: 09:55 molto_nuvoloso Molto Nuvoloso 18 12 67 1012 10 N 22.2
Oggi h: 08:55 nuvoloso Nuvoloso 16 13 82 1012 10 N/NO 16.7
Oggi h: 07:55 molto_nuvoloso Molto Nuvoloso 15 13 87 1012 10 NO 18.5
Oggi h: 06:55 molto_nuvoloso Molto Nuvoloso 14 12 87 1012 10 O/NO 14.8
Oggi h: 05:55 coperto_pioggia Pioggia Debole 14 12 87 1012 10 NO 18.5
Oggi h: 04:55 nuvoloso Nuvoloso 15 13 87 1012 10 N 20.3
Oggi h: 03:55 nuvoloso Nuvoloso 15 12 82 1012 10 N/NO 14.8
Oggi h: 02:55 sereno Sereno 15 12 82 1012 10 NO 16.7
Oggi h: 00:55 sereno Sereno 15 13 87 1013 10 NO 14.8
Ieri h: 23:55 sereno Sereno 15 13 87 1013 10 NO 14.8
Ieri h: 22:55 sereno Sereno 16 13 82 1013 10 O/NO 9.3
Ieri h: 21:55 sereno Sereno 16 13 82 1013 10 NO 11.1
Ieri h: 20:55 sereno Sereno 17 13 77 1013 10 NO 13
Ieri h: 19:55 poco_nuvoloso Poco Nuvoloso 18 12 67 1012 10 N/NO 18.5
Ieri h: 18:55 poco_nuvoloso Poco Nuvoloso 18 14 77 1012 10 N/NO 14.8
Ieri h: 17:55 poco_nuvoloso Poco Nuvoloso 17 16 93 1012 10 N 13
Ieri h: 16:55 poco_nuvoloso Poco Nuvoloso 18 16 88 1013 10 N/NO 16.7
Ieri h: 15:55 nuvoloso Nuvoloso 19 14 72 1013 10 NO 24
Ieri h: 14:55 nuvoloso Nuvoloso 19 16 82 1013 10 O 18.5
Ieri h: 13:55 nuvoloso Nuvoloso 20 15 72 1013 10 O 18.5